createdAt,value
2022-11-26T00:00:38.774Z,0.57
2022-11-26T00:05:43.284Z,0.55
2022-11-26T00:10:44.952Z,0.60
2022-11-26T00:15:46.519Z,0.30
2022-11-26T00:20:53.803Z,0.40
2022-11-26T00:25:57.947Z,0.20
2022-11-26T00:31:01.687Z,0.30
2022-11-26T00:36:31.275Z,0.63
2022-11-26T00:41:35.716Z,0.30
2022-11-26T00:46:37.359Z,0.30
2022-11-26T00:51:39.340Z,0.70
2022-11-26T00:56:41.663Z,0.20
2022-11-26T01:01:43.611Z,0.52
2022-11-26T01:06:45.725Z,0.50
2022-11-26T01:11:52.301Z,0.22
2022-11-26T01:16:56.784Z,0.43
2022-11-26T01:21:58.297Z,0.32
2022-11-26T01:26:59.734Z,0.10
2022-11-26T01:32:01.417Z,0.30
2022-11-26T01:37:02.985Z,0.30
2022-11-26T01:42:31.377Z,0.30
2022-11-26T01:47:33.570Z,0.45
2022-11-26T01:52:35.566Z,0.30
2022-11-26T01:57:37.066Z,0.55
2022-11-26T02:02:39.124Z,0.40
2022-11-26T02:07:41.280Z,0.50
2022-11-26T02:12:43.074Z,0.10
2022-11-26T02:17:57.782Z,0.40
2022-11-26T02:23:40.822Z,0.60
2022-11-26T02:28:53.453Z,0.35
2022-11-26T02:34:10.136Z,0.20
2022-11-26T02:39:17.414Z,0.40
2022-11-26T02:44:23.454Z,0.98
2022-11-26T02:49:27.457Z,0.20
2022-11-26T02:54:30.137Z,0.17
2022-11-26T02:59:32.142Z,0.88
2022-11-26T03:04:38.219Z,0.57
2022-11-26T03:09:57.915Z,0.43
2022-11-26T03:14:59.390Z,0.47
2022-11-26T03:20:00.873Z,0.30
2022-11-26T03:25:02.831Z,0.98
2022-11-26T03:30:05.468Z,0.63
2022-11-26T03:35:07.571Z,0.30
2022-11-26T03:40:09.364Z,0.50
2022-11-26T03:45:11.816Z,0.20
2022-11-26T03:50:13.334Z,1.65
2022-11-26T03:55:14.950Z,0.40
2022-11-26T04:00:16.882Z,0.60
2022-11-26T04:05:18.838Z,0.45
2022-11-26T04:10:20.250Z,0.25
2022-11-26T04:15:21.698Z,0.85
2022-11-26T04:20:23.509Z,0.60
2022-11-26T04:25:24.962Z,0.70
2022-11-26T04:30:26.514Z,0.30
2022-11-26T04:35:27.988Z,0.45
2022-11-26T04:40:29.574Z,0.40
2022-11-26T04:45:31.028Z,0.22
2022-11-26T04:50:32.666Z,0.32
2022-11-26T04:55:34.106Z,0.77
2022-11-26T05:00:35.670Z,0.30
2022-11-26T05:05:37.398Z,0.30
2022-11-26T05:10:38.794Z,0.50
2022-11-26T05:15:40.255Z,0.15
2022-11-26T05:20:42.376Z,0.30
2022-11-26T05:25:43.820Z,0.30
2022-11-26T05:30:45.313Z,0.22
2022-11-26T05:35:46.751Z,0.40
2022-11-26T05:40:48.179Z,0.30
2022-11-26T05:45:49.764Z,0.73
2022-11-26T05:50:57.157Z,1.08
2022-11-26T05:55:58.711Z,0.45
2022-11-26T06:01:01.246Z,0.30
2022-11-26T06:06:03.810Z,1.10
2022-11-26T06:11:05.421Z,1.05
2022-11-26T06:16:07.589Z,1.35
2022-11-26T06:21:10.165Z,0.70
2022-11-26T06:26:13.036Z,0.73
2022-11-26T06:31:14.679Z,0.73
2022-11-26T06:36:16.237Z,1.05
2022-11-26T06:41:18.007Z,0.60
2022-11-26T06:46:19.695Z,0.60
2022-11-26T06:51:21.446Z,1.38
2022-11-26T06:56:22.949Z,1.67
2022-11-26T07:01:26.732Z,0.50
2022-11-26T07:06:30.502Z,0.40
2022-11-26T07:11:32.278Z,0.45
2022-11-26T07:16:34.979Z,0.30
2022-11-26T07:21:36.486Z,1.00
2022-11-26T07:26:37.976Z,0.50
2022-11-26T07:31:39.805Z,0.73
2022-11-26T07:36:41.331Z,1.35
2022-11-26T07:41:42.779Z,1.38
2022-11-26T07:46:44.381Z,1.00
2022-11-26T07:51:45.888Z,0.70
2022-11-26T07:56:47.358Z,0.40
2022-11-26T08:01:48.936Z,0.90
2022-11-26T08:06:50.477Z,0.52
2022-11-26T08:11:51.912Z,0.50
2022-11-26T08:16:53.450Z,0.77
2022-11-26T08:21:55.030Z,1.02
2022-11-26T08:26:56.798Z,1.15
2022-11-26T08:32:00.976Z,1.10
2022-11-26T08:37:02.512Z,0.77
2022-11-26T08:42:04.083Z,0.85
2022-11-26T08:47:05.534Z,0.95
2022-11-26T08:52:06.983Z,0.73
2022-11-26T08:57:08.509Z,1.02
2022-11-26T09:02:15.953Z,1.00
2022-11-26T09:07:20.010Z,0.60
2022-11-26T09:12:21.509Z,0.73
2022-11-26T09:17:22.953Z,0.57
2022-11-26T09:22:24.397Z,1.30
2022-11-26T09:27:25.868Z,1.08
2022-11-26T09:32:33.661Z,0.93
2022-11-26T09:37:35.603Z,1.05
2022-11-26T09:42:50.417Z,1.00
2022-11-26T09:47:53.370Z,0.70
2022-11-26T09:52:57.916Z,0.60
2022-11-26T09:58:27.300Z,0.38
2022-11-26T10:03:28.965Z,0.47
2022-11-26T10:08:45.724Z,0.38
2022-11-26T10:14:20.101Z,0.40
2022-11-26T10:19:34.149Z,0.28
2022-11-26T10:24:39.603Z,0.20
2022-11-26T10:29:43.349Z,0.20
2022-11-26T10:34:55.928Z,0.40
2022-11-26T10:40:15.987Z,0.93
2022-11-26T10:45:24.177Z,0.30
2022-11-26T10:50:47.129Z,1.00
2022-11-26T10:55:48.212Z,0.38
2022-11-26T11:00:49.709Z,1.13
2022-11-26T11:05:51.729Z,0.63
2022-11-26T11:10:55.763Z,0.30
2022-11-26T11:16:02.570Z,0.68
2022-11-26T11:21:06.133Z,0.65
2022-11-26T11:26:16.840Z,0.32
2022-11-26T11:31:23.449Z,1.50
2022-11-26T11:36:27.858Z,0.45
2022-11-26T11:41:48.834Z,0.50
2022-11-26T11:47:11.458Z,0.30
2022-11-26T11:52:21.219Z,0.20
2022-11-26T11:57:48.412Z,0.73
2022-11-26T12:03:15.981Z,0.17
2022-11-26T12:08:44.698Z,0.40
2022-11-26T12:14:12.514Z,0.65
2022-11-26T12:19:29.219Z,0.15
2022-11-26T12:24:59.216Z,0.40
2022-11-26T12:30:36.804Z,0.55
2022-11-26T12:35:51.961Z,0.20
2022-11-26T12:41:01.557Z,0.50
2022-11-26T12:46:08.762Z,0.10
2022-11-26T12:51:16.116Z,0.20
2022-11-26T12:56:40.875Z,0.10
2022-11-26T13:01:42.312Z,0.00
2022-11-26T13:06:57.768Z,0.13
2022-11-26T13:12:04.194Z,0.10
2022-11-26T13:17:12.840Z,0.10
2022-11-26T13:22:27.948Z,0.10
2022-11-26T13:27:48.125Z,0.00
2022-11-26T13:32:58.621Z,0.15
2022-11-26T13:38:36.360Z,0.20
2022-11-26T13:43:56.031Z,0.25
2022-11-26T13:49:03.018Z,0.10
2022-11-26T13:54:10.384Z,0.25
2022-11-26T13:59:26.822Z,0.10
2022-11-26T14:04:29.895Z,0.20
2022-11-26T14:09:43.676Z,0.30
2022-11-26T14:14:46.575Z,0.20
2022-11-26T14:19:47.986Z,0.08
2022-11-26T14:24:49.573Z,0.00
2022-11-26T14:30:00.374Z,0.10
2022-11-26T14:35:01.922Z,0.17
2022-11-26T14:40:16.586Z,0.10
2022-11-26T14:45:20.854Z,0.10
2022-11-26T14:50:24.268Z,0.20
2022-11-26T14:55:28.716Z,0.13
2022-11-26T15:00:32.448Z,0.28
2022-11-26T15:05:33.992Z,0.32
2022-11-26T15:10:58.111Z,0.13
2022-11-26T15:16:02.074Z,0.10
2022-11-26T15:21:04.459Z,0.57
2022-11-26T15:26:06.198Z,0.10
2022-11-26T15:31:07.990Z,0.22
2022-11-26T15:36:14.403Z,0.20
2022-11-26T15:41:19.833Z,0.38
2022-11-26T15:46:25.512Z,0.13
2022-11-26T15:56:38.605Z,0.10
2022-11-26T16:01:44.562Z,0.22
2022-11-26T16:06:46.167Z,0.40
2022-11-26T16:11:58.676Z,0.25
2022-11-26T16:17:08.376Z,0.20
2022-11-26T16:22:15.950Z,0.30
2022-11-26T16:27:17.362Z,0.60
2022-11-26T16:32:19.552Z,0.28
2022-11-26T16:37:29.193Z,0.57
2022-11-26T16:42:32.656Z,0.40
2022-11-26T16:47:40.516Z,0.25
2022-11-26T16:52:42.241Z,0.10
2022-11-26T16:57:46.688Z,0.10
2022-11-26T17:02:48.838Z,0.17
2022-11-26T17:07:59.245Z,0.47
2022-11-26T17:13:00.864Z,0.30
2022-11-26T17:18:18.453Z,1.30
2022-11-26T17:23:20.034Z,0.80
2022-11-26T17:28:21.583Z,0.65
2022-11-26T17:33:22.983Z,0.75
2022-11-26T17:38:24.742Z,1.38
2022-11-26T17:43:26.350Z,1.25
2022-11-26T17:48:27.868Z,1.65
2022-11-26T17:53:29.349Z,1.98
2022-11-26T17:58:30.961Z,1.20
2022-11-26T18:03:32.524Z,3.38
2022-11-26T18:08:34.189Z,1.88
2022-11-26T18:13:35.673Z,2.22
2022-11-26T18:18:37.176Z,1.92
2022-11-26T18:23:38.616Z,1.73
2022-11-26T18:28:40.113Z,1.13
2022-11-26T18:33:41.572Z,0.30
2022-11-26T18:38:42.994Z,0.80
2022-11-26T18:43:44.488Z,0.88
2022-11-26T18:48:47.697Z,0.50
2022-11-26T18:53:49.374Z,0.70
2022-11-26T18:58:51.318Z,0.55
2022-11-26T19:03:53.244Z,0.43
2022-11-26T19:09:16.143Z,1.02
2022-11-26T19:14:17.604Z,0.57
2022-11-26T19:19:19.469Z,0.65
2022-11-26T19:24:20.939Z,0.88
2022-11-26T19:29:22.611Z,0.70
2022-11-26T19:34:24.255Z,0.63
2022-11-26T19:39:25.736Z,0.30
2022-11-26T19:44:27.293Z,0.60
2022-11-26T19:49:28.948Z,0.40
2022-11-26T19:54:30.446Z,2.47
2022-11-26T19:59:32.017Z,0.85
2022-11-26T20:04:33.454Z,0.47
2022-11-26T20:09:34.849Z,0.93
2022-11-26T20:14:36.293Z,0.45
2022-11-26T20:19:38.222Z,0.43
2022-11-26T20:24:40.178Z,0.60
2022-11-26T20:29:41.813Z,1.50
2022-11-26T20:34:43.451Z,0.65
2022-11-26T20:39:45.128Z,0.55
2022-11-26T20:44:46.542Z,0.90
2022-11-26T20:49:48.261Z,0.35
2022-11-26T20:54:53.852Z,0.85
2022-11-26T20:59:55.605Z,0.93
2022-11-26T21:04:57.369Z,0.52
2022-11-26T21:09:58.823Z,0.82
2022-11-26T21:15:00.250Z,0.95
2022-11-26T21:20:01.744Z,0.93
2022-11-26T21:25:03.387Z,1.05
2022-11-26T21:30:05.530Z,1.08
2022-11-26T21:35:07.287Z,0.70
2022-11-26T21:40:09.316Z,0.63
2022-11-26T21:45:11.611Z,0.65
2022-11-26T21:50:13.069Z,1.55
2022-11-26T21:55:14.543Z,0.80
2022-11-26T22:00:16.847Z,1.02
2022-11-26T22:05:18.286Z,1.10
2022-11-26T22:10:19.916Z,1.42
2022-11-26T22:15:21.318Z,1.52
2022-11-26T22:20:22.854Z,1.65
2022-11-26T22:25:24.461Z,2.33
2022-11-26T22:30:25.963Z,2.08
2022-11-26T22:35:27.405Z,1.45
2022-11-26T22:40:28.914Z,2.25
2022-11-26T22:45:30.613Z,2.08
2022-11-26T22:50:32.108Z,2.47
2022-11-26T22:55:33.705Z,2.90
2022-11-26T23:00:47.889Z,2.60
2022-11-26T23:05:49.336Z,3.17
2022-11-26T23:10:50.891Z,2.80
2022-11-26T23:15:52.374Z,3.88
2022-11-26T23:21:11.841Z,3.35
2022-11-26T23:26:17.133Z,3.80
2022-11-26T23:31:24.048Z,3.63
2022-11-26T23:36:27.116Z,2.83
2022-11-26T23:41:28.664Z,3.50
2022-11-26T23:46:32.415Z,3.58
2022-11-26T23:51:34.040Z,4.18
2022-11-26T23:56:35.641Z,3.75
